Lake Junaluska, NC (28745)

11:33 PM EDT on September 24, 2016 (GMT -0400)
Lake Junaluska | | Change Station

Elev 2657 ft 35.53 °N, 82.97 °W | Updated 37 seconds ago

Clear
Clear
65.3 °F
Feels Like 65.3 °F
N
0.0
Wind Variable Wind from SSE
Gusts 0.0 mph

Today
High -- | Low -- °F
--% Chance of Precip.
Yesterday
High -- | Low -- °F
Precip. -- in
Pressure 30.09 in
Visibility 10.0 miles
Clouds Clear
Dew Point 64 °F
Humidity 95%
Rainfall 0.00 in
Snow Depth Not available.
7:21 AM 7:25 PM
Waning Crescent, 32% visible
METAR KAVL 250254Z AUTO 00000KT 10SM CLR 19/16 A3016 RMK AO2 SLP188 T01940161 51011
Pressure 30.09 in
Visibility 10.0 miles
Clouds Clear
Dew Point 64 °F
Humidity 95%
Rainfall 0.00 in
Snow Depth Not available.
7:21 AM 7:25 PM
Waning Crescent, 32% visible
METAR KAVL 250254Z AUTO 00000KT 10SM CLR 19/16 A3016 RMK AO2 SLP188 T01940161 51011

10-Day Weather Forecast

Almanac

Astronomy

Sep. 24, 2016 Rise Set
Actual Time
Civil Twilight
Nautical Twilight
Astronomical Twilight
Moon
Length of Visible Light
Length of Day
Tomorrow will be .
, % of the Moon is Illuminated

Today's Extremes

State Highs State Lows

Community

WunderPhotos

Upload Photos

1,941,537 photos uploaded!

WunderBlog® & News

Nearby

Air Quality

  Air Quality AQ Index Pollutant
Not available.

Snow Depth

Station Depth Elevation

Earthquake Activity

City Distance Mag. Time & Date
Minimum magnitude displayed is 2.5.

Coastal Water Temperatures

Place Temperature

Stations

Nearby Weather Stations

Station Location Temp. Windchill Dew Point Humidity Wind Precip. Elev Updated Type
                   

Watches & Warnings

There are currently no watches in effect.